Airfield :
LOGIN :

Register | Disclaimer

   EN    FR    IT 

 










Legend :    VFR   Marginal VFR   IFR   Intensive IFR   Very Intensive IFR
Visi :
Ceiling :
>= 8 km
>= 3000ft
5 to 8 km
1000 to 3000 ft
1500m to 5 km
500 to 1000 ft
800 to 1500m
200 to 500 ft
< 800m
< 200 ft
Symbols :   Thunderstorms  Fog  Heavy snow  Heavy precipitations  Wind > 20 kt
SIGMETs :     Misc.  Thunderstorms  Icing  Turbulence  Mountain Waves  Volcanic Ashes






- Airport Elevation : 112 ft
- IATA code : SVQ


LEZL - Sevilla San Pablo

CURRENT METAR :
  • 280800Z AUTO 06012KT CAVOK 24/12 Q1018

EXPIRED METARs :
  • 280730Z AUTO 05011KT CAVOK 23/12 Q1018
  • 280700Z AUTO 05010KT CAVOK 21/12 Q1018
  • 280630Z AUTO 05009KT CAVOK 20/12 Q1018
  • 280600Z AUTO 05009KT CAVOK 19/13 Q1018
  • 280530Z AUTO 05008KT CAVOK 19/12 Q1018

TAF TAF LEZL
Valid from the 28 at 03:00 until the 29 at 03:00 UTC


280200Z 2803/2903 08013KT CAVOK TX35/2815Z TN20/2805Z
PROB40
TEMPO 2809/2815 09015G25KT
BECMG 2817/2820 20006KT
BECMG 2900/2903 05010KT



MET'MAP, your aeronautical weather chart ! - Copyright ORBIFLY December 2007 - Disclaimer

ORBIFLY MET'MAP TEAM :

Programming & Development : Alexandra Zaïnal
Concept & original design : Baudouin d'Aumeries
Assistance for programming : Marc-Olivier Méhu
Technical & hardware support : Manuel Goepfert

Contact : metmap@orbifly.com




SOURCES & CREDITS :

   NOAA